createdAt,value
2022-08-05T00:01:36.337Z,1.20
2022-08-05T00:04:18.551Z,1.80
2022-08-05T00:06:47.089Z,1.83
2022-08-05T00:09:16.005Z,1.40
2022-08-05T00:11:48.645Z,1.53
2022-08-05T00:14:18.055Z,1.70
2022-08-05T00:16:52.358Z,1.70
2022-08-05T00:19:23.352Z,1.30
2022-08-05T00:21:53.995Z,1.50
2022-08-05T00:24:24.738Z,1.77
2022-08-05T00:26:58.944Z,1.80
2022-08-05T00:29:27.623Z,1.20
2022-08-05T00:32:12.615Z,1.20
2022-08-05T00:35:03.546Z,1.30
2022-08-05T00:37:51.018Z,1.63
2022-08-05T00:40:27.840Z,1.53
2022-08-05T00:42:57.899Z,1.50
2022-08-05T00:45:37.813Z,1.77
2022-08-05T00:48:08.228Z,1.83
2022-08-05T00:50:41.343Z,1.63
2022-08-05T00:54:00.466Z,1.83
2022-08-05T00:56:00.118Z,1.90
2022-08-05T00:58:28.031Z,1.60
2022-08-05T01:00:56.337Z,1.80
2022-08-05T01:03:24.411Z,1.50
2022-08-05T01:06:00.562Z,2.10
2022-08-05T01:08:39.826Z,1.90
2022-08-05T01:11:21.761Z,1.93
2022-08-05T01:14:03.935Z,2.00
2022-08-05T01:16:46.117Z,2.00
2022-08-05T01:19:36.766Z,2.00
2022-08-05T01:22:28.007Z,2.13
2022-08-05T01:25:10.939Z,1.83
2022-08-05T01:28:11.378Z,1.83
2022-08-05T01:30:46.580Z,1.93
2022-08-05T01:33:29.350Z,1.77
2022-08-05T01:36:13.157Z,2.10
2022-08-05T01:38:45.812Z,1.70
2022-08-05T01:41:20.969Z,2.10
2022-08-05T01:43:53.489Z,1.97
2022-08-05T01:46:41.984Z,1.63
2022-08-05T01:49:23.647Z,1.90
2022-08-05T01:51:55.832Z,2.57
2022-08-05T01:54:29.284Z,1.63
2022-08-05T01:58:09.773Z,2.13
2022-08-05T01:59:51.963Z,2.33
2022-08-05T02:02:25.999Z,2.50
2022-08-05T02:04:59.614Z,2.23
2022-08-05T02:07:30.215Z,3.17
2022-08-05T02:09:58.852Z,2.33
2022-08-05T02:12:35.866Z,2.30
2022-08-05T02:15:13.770Z,2.23
2022-08-05T02:18:31.171Z,2.50
2022-08-05T02:20:47.085Z,2.80
2022-08-05T02:23:15.780Z,3.00
2022-08-05T02:25:49.012Z,3.17
2022-08-05T02:28:29.386Z,2.73
2022-08-05T02:31:06.039Z,3.80
2022-08-05T02:33:40.420Z,3.47
2022-08-05T02:36:15.539Z,3.70
2022-08-05T02:38:53.366Z,3.90
2022-08-05T02:41:28.465Z,3.23
2022-08-05T02:44:13.215Z,3.80
2022-08-05T02:46:58.387Z,3.57
2022-08-05T02:49:36.658Z,3.40
2022-08-05T02:52:09.914Z,3.87
2022-08-05T02:54:42.282Z,3.50
2022-08-05T02:58:10.887Z,3.47
2022-08-05T03:00:02.398Z,4.67
2022-08-05T03:02:36.874Z,4.40
2022-08-05T03:05:06.161Z,4.70
2022-08-05T03:08:01.930Z,5.07
2022-08-05T03:10:25.163Z,5.77
2022-08-05T03:12:53.957Z,4.70
2022-08-05T03:15:23.730Z,4.07
2022-08-05T03:17:55.840Z,3.77
2022-08-05T03:20:26.319Z,3.70
2022-08-05T03:22:57.189Z,4.70
2022-08-05T03:25:32.989Z,4.97
2022-08-05T03:28:18.896Z,6.17
2022-08-05T03:30:49.438Z,6.57
2022-08-05T03:33:19.400Z,6.67
2022-08-05T03:35:47.871Z,7.30
2022-08-05T03:38:16.123Z,6.33
2022-08-05T03:40:47.524Z,6.10
2022-08-05T03:44:09.571Z,7.20
2022-08-05T03:46:08.268Z,6.77
2022-08-05T03:48:37.599Z,6.00
2022-08-05T03:52:37.186Z,7.60
2022-08-05T03:55:54.144Z,6.93
2022-08-05T03:56:59.911Z,6.73
2022-08-05T03:59:47.566Z,7.80
2022-08-05T04:02:38.289Z,8.00
2022-08-05T04:05:10.792Z,7.10
2022-08-05T04:07:53.187Z,6.83
2022-08-05T04:10:28.329Z,7.37
2022-08-05T04:13:00.133Z,7.13
2022-08-05T04:15:33.269Z,7.03
2022-08-05T04:18:07.021Z,7.33
2022-08-05T04:20:37.138Z,7.27
2022-08-05T04:23:05.386Z,7.40
2022-08-05T04:25:57.519Z,8.07
2022-08-05T04:28:21.065Z,6.97
2022-08-05T04:30:58.840Z,8.07
2022-08-05T04:34:18.525Z,7.03
2022-08-05T04:36:46.590Z,8.63
2022-08-05T04:39:06.980Z,7.80
2022-08-05T04:41:37.750Z,7.50
2022-08-05T04:44:09.034Z,8.40
2022-08-05T04:46:37.869Z,7.97
2022-08-05T04:49:12.428Z,8.43
2022-08-05T04:51:44.425Z,7.93
2022-08-05T04:54:12.428Z,8.67
2022-08-05T04:56:40.322Z,7.77
2022-08-05T04:59:21.737Z,7.40
2022-08-05T05:02:07.155Z,7.93
2022-08-05T05:04:44.091Z,7.23
2022-08-05T05:07:17.266Z,8.10
2022-08-05T05:09:45.298Z,8.00
2022-08-05T05:12:13.245Z,8.33
2022-08-05T05:14:49.435Z,8.50
2022-08-05T05:17:23.908Z,9.00
2022-08-05T05:19:56.609Z,9.17
2022-08-05T05:22:26.878Z,8.90
2022-08-05T05:24:57.956Z,9.93
2022-08-05T05:27:41.423Z,9.47
2022-08-05T05:30:15.692Z,8.97
2022-08-05T05:33:00.919Z,11.50
2022-08-05T05:35:38.073Z,9.23
2022-08-05T05:38:13.461Z,10.73
2022-08-05T05:40:50.089Z,11.07
2022-08-05T05:43:22.198Z,10.83
2022-08-05T05:46:12.195Z,11.47
2022-08-05T05:48:42.053Z,10.73
2022-08-05T05:51:15.536Z,11.03
2022-08-05T05:53:54.579Z,11.07
2022-08-05T05:56:32.470Z,10.50
2022-08-05T05:59:05.809Z,11.37
2022-08-05T06:01:37.122Z,10.50
2022-08-05T06:04:11.528Z,11.87
2022-08-05T06:06:41.942Z,10.70
2022-08-05T06:09:18.079Z,11.10
2022-08-05T06:12:01.054Z,11.10
2022-08-05T06:14:30.353Z,11.27
2022-08-05T06:16:58.560Z,11.47
2022-08-05T06:19:34.745Z,12.27
2022-08-05T06:22:03.818Z,12.13
2022-08-05T06:24:33.458Z,12.07
2022-08-05T06:27:04.018Z,11.37
2022-08-05T06:29:51.936Z,12.40
2022-08-05T06:32:24.803Z,11.33
2022-08-05T06:34:56.208Z,11.77
2022-08-05T06:37:56.340Z,12.17
2022-08-05T06:40:18.193Z,10.67
2022-08-05T06:42:51.767Z,11.50
2022-08-05T06:45:44.548Z,11.57
2022-08-05T06:48:36.869Z,10.97
2022-08-05T06:50:57.090Z,11.83
2022-08-05T06:53:27.753Z,10.37
2022-08-05T06:55:58.389Z,11.43
2022-08-05T06:58:35.033Z,10.47
2022-08-05T07:01:06.202Z,11.30
2022-08-05T07:03:34.958Z,10.97
2022-08-05T07:06:05.799Z,10.67
2022-08-05T07:08:42.119Z,10.93
2022-08-05T07:11:15.557Z,11.43
2022-08-05T07:14:01.229Z,13.90
2022-08-05T07:17:57.135Z,14.53
2022-08-05T07:22:28.249Z,13.93
2022-08-05T07:24:58.249Z,15.00
2022-08-05T07:27:56.449Z,16.07
2022-08-05T07:30:24.188Z,15.47
2022-08-05T07:32:56.176Z,15.10
2022-08-05T07:36:01.994Z,16.83
2022-08-05T07:38:32.762Z,15.63
2022-08-05T07:41:16.724Z,14.93
2022-08-05T07:43:50.861Z,12.40
2022-08-05T07:46:25.256Z,12.90
2022-08-05T07:49:02.217Z,11.27
2022-08-05T07:51:36.888Z,10.53
2022-08-05T07:54:09.717Z,9.07
2022-08-05T07:57:02.613Z,10.30
2022-08-05T07:59:38.202Z,10.03
2022-08-05T08:02:16.253Z,9.57
2022-08-05T08:04:49.203Z,9.10
2022-08-05T08:07:22.053Z,11.23
2022-08-05T08:09:52.351Z,8.87
2022-08-05T08:12:35.134Z,9.57
2022-08-05T08:15:14.018Z,10.73
2022-08-05T08:17:50.552Z,11.70
2022-08-05T08:21:00.371Z,12.07
2022-08-05T08:23:59.934Z,13.23
2022-08-05T08:26:00.854Z,14.33
2022-08-05T08:28:36.066Z,14.23
2022-08-05T08:31:07.587Z,13.83
2022-08-05T08:33:37.822Z,14.90
2022-08-05T08:36:38.967Z,14.83
2022-08-05T08:38:56.108Z,13.57
2022-08-05T08:41:52.200Z,12.97
2022-08-05T08:45:22.763Z,11.20
2022-08-05T08:47:47.651Z,9.77
2022-08-05T08:50:23.438Z,8.77
2022-08-05T08:52:47.367Z,9.43
2022-08-05T08:56:01.688Z,9.33
2022-08-05T08:58:08.652Z,9.00
2022-08-05T09:00:36.989Z,9.57
2022-08-05T09:03:08.501Z,9.63
2022-08-05T09:05:38.951Z,9.27
2022-08-05T09:08:26.689Z,7.97
2022-08-05T09:10:58.514Z,7.57
2022-08-05T09:13:31.412Z,7.87
2022-08-05T09:16:00.276Z,7.70
2022-08-05T09:18:29.465Z,8.00
2022-08-05T09:20:57.715Z,7.77
2022-08-05T09:23:37.192Z,7.73
2022-08-05T09:26:10.600Z,7.33
2022-08-05T09:28:49.289Z,7.87
2022-08-05T09:31:44.192Z,6.07
2022-08-05T09:34:09.914Z,6.33
2022-08-05T09:36:54.527Z,7.07
2022-08-05T09:39:39.305Z,6.00
2022-08-05T09:42:23.736Z,7.20
2022-08-05T09:44:57.493Z,5.77
2022-08-05T09:47:55.624Z,6.77
2022-08-05T09:50:43.707Z,6.40
2022-08-05T09:53:22.713Z,6.27
2022-08-05T09:56:03.996Z,6.10
2022-08-05T09:58:41.845Z,5.37
2022-08-05T10:01:15.589Z,6.07
2022-08-05T10:04:00.104Z,5.57
2022-08-05T10:06:31.084Z,4.90
2022-08-05T10:09:27.568Z,5.37
2022-08-05T10:12:30.337Z,4.97
2022-08-05T10:15:13.852Z,4.57
2022-08-05T10:17:54.580Z,3.97
2022-08-05T10:20:25.184Z,4.27
2022-08-05T10:22:54.547Z,4.03
2022-08-05T10:25:26.333Z,4.20
2022-08-05T10:28:09.369Z,3.57
2022-08-05T10:32:50.751Z,3.20
2022-08-05T10:33:34.289Z,3.30
2022-08-05T10:36:05.401Z,2.70
2022-08-05T10:38:36.741Z,2.97
2022-08-05T10:41:12.292Z,2.80
2022-08-05T10:43:52.154Z,2.37
2022-08-05T10:46:23.896Z,3.13
2022-08-05T10:49:00.500Z,2.30
2022-08-05T10:51:57.477Z,3.50
2022-08-05T10:54:56.520Z,3.03
2022-08-05T10:57:30.901Z,3.13
2022-08-05T11:00:19.629Z,3.33
2022-08-05T11:03:23.380Z,4.37
2022-08-05T11:06:05.584Z,3.00
2022-08-05T11:08:37.853Z,3.13
2022-08-05T11:11:44.753Z,2.30
2022-08-05T11:14:56.283Z,2.40
2022-08-05T11:17:59.261Z,2.00
2022-08-05T11:20:39.283Z,2.07
2022-08-05T11:24:05.661Z,1.57
2022-08-05T11:26:28.101Z,1.80
2022-08-05T11:29:03.848Z,1.70
2022-08-05T11:31:56.520Z,1.93
2022-08-05T11:34:38.346Z,1.93
2022-08-05T11:38:37.005Z,1.80
2022-08-05T11:40:00.351Z,1.60
2022-08-05T11:42:37.999Z,1.20
2022-08-05T11:45:14.464Z,1.23
2022-08-05T11:47:54.490Z,1.40
2022-08-05T11:50:22.966Z,1.20
2022-08-05T11:52:57.538Z,1.10
2022-08-05T11:55:31.717Z,1.53
2022-08-05T11:58:10.895Z,1.40
2022-08-05T12:00:44.115Z,1.53
2022-08-05T12:03:29.105Z,1.50
2022-08-05T12:06:06.560Z,1.40
2022-08-05T12:08:48.022Z,1.47
2022-08-05T12:11:20.756Z,1.23
2022-08-05T12:13:59.404Z,1.50
2022-08-05T12:16:38.393Z,1.03
2022-08-05T12:19:08.416Z,1.60
2022-08-05T12:21:42.811Z,1.10
2022-08-05T12:24:13.950Z,1.37
2022-08-05T12:26:47.624Z,0.90
2022-08-05T12:29:17.949Z,1.37
2022-08-05T12:31:54.630Z,1.10
2022-08-05T12:34:26.621Z,1.27
2022-08-05T12:36:55.711Z,1.63
2022-08-05T12:39:27.953Z,1.23
2022-08-05T12:41:59.330Z,1.50
2022-08-05T12:44:33.811Z,1.57
2022-08-05T12:47:04.050Z,1.20
2022-08-05T12:50:04.529Z,1.17
2022-08-05T12:52:37.721Z,1.23
2022-08-05T12:55:22.108Z,1.50
2022-08-05T12:58:49.097Z,1.50
2022-08-05T13:02:01.594Z,1.30
2022-08-05T13:03:41.776Z,1.02
2022-08-05T13:06:13.859Z,1.20
2022-08-05T13:08:46.040Z,1.17
2022-08-05T13:11:57.922Z,1.37
2022-08-05T13:14:20.008Z,1.17
2022-08-05T13:16:50.285Z,1.43
2022-08-05T13:19:22.620Z,1.47
2022-08-05T13:21:52.429Z,1.27
2022-08-05T13:24:36.599Z,1.20
2022-08-05T13:27:17.053Z,1.30
2022-08-05T13:30:33.750Z,1.30
2022-08-05T13:32:50.570Z,1.20
2022-08-05T13:35:31.339Z,1.30
2022-08-05T13:38:09.150Z,1.40
2022-08-05T13:40:51.789Z,1.60
2022-08-05T13:43:21.980Z,1.40
2022-08-05T13:45:50.679Z,1.77
2022-08-05T13:49:00.255Z,1.50
2022-08-05T13:51:09.543Z,1.50
2022-08-05T13:53:48.253Z,1.43
2022-08-05T13:56:18.494Z,1.53
2022-08-05T13:58:52.779Z,1.60
2022-08-05T14:01:25.931Z,1.33
2022-08-05T14:04:26.662Z,1.60
2022-08-05T14:06:58.713Z,1.83
2022-08-05T14:09:46.482Z,1.77
2022-08-05T14:12:17.657Z,1.40
2022-08-05T14:15:00.129Z,1.70
2022-08-05T14:17:28.322Z,1.60
2022-08-05T14:20:00.939Z,1.53
2022-08-05T14:22:34.295Z,1.37
2022-08-05T14:25:02.868Z,1.50
2022-08-05T14:27:34.347Z,1.63
2022-08-05T14:30:02.498Z,1.60
2022-08-05T14:32:32.521Z,1.30
2022-08-05T14:35:01.509Z,1.53
2022-08-05T14:37:45.444Z,1.30
2022-08-05T14:40:17.505Z,1.20
2022-08-05T14:42:45.358Z,1.37
2022-08-05T14:45:13.490Z,1.10
2022-08-05T14:48:02.820Z,1.10
2022-08-05T14:50:31.029Z,1.17
2022-08-05T14:53:00.227Z,1.60
2022-08-05T14:55:39.437Z,1.13
2022-08-05T14:58:11.212Z,1.53
2022-08-05T15:00:58.800Z,1.40
2022-08-05T15:03:33.077Z,1.53
2022-08-05T15:06:13.490Z,1.20
2022-08-05T15:08:59.705Z,0.97
2022-08-05T15:11:51.525Z,1.43
2022-08-05T15:14:35.066Z,1.30
2022-08-05T15:17:44.690Z,1.27
2022-08-05T15:19:57.657Z,1.10
2022-08-05T15:22:27.226Z,1.10
2022-08-05T15:24:56.034Z,1.10
2022-08-05T15:27:26.008Z,1.00
2022-08-05T15:29:56.575Z,1.00
2022-08-05T15:32:27.498Z,0.73
2022-08-05T15:34:56.953Z,0.87
2022-08-05T15:38:34.387Z,0.83
2022-08-05T15:41:02.516Z,0.73
2022-08-05T15:43:12.627Z,0.70
2022-08-05T15:45:47.885Z,0.53
2022-08-05T15:48:28.835Z,0.80
2022-08-05T15:50:56.759Z,1.13
2022-08-05T15:53:26.562Z,0.67
2022-08-05T15:56:13.051Z,0.67
2022-08-05T15:58:43.614Z,0.57
2022-08-05T16:01:16.463Z,0.83
2022-08-05T16:03:48.352Z,0.73
2022-08-05T16:06:19.973Z,0.40
2022-08-05T16:08:50.279Z,0.40
2022-08-05T16:11:20.801Z,0.40
2022-08-05T16:14:08.981Z,0.43
2022-08-05T16:16:37.384Z,0.67
2022-08-05T16:19:05.563Z,0.87
2022-08-05T16:22:00.466Z,0.50
2022-08-05T16:24:41.050Z,0.50
2022-08-05T16:27:09.594Z,0.40
2022-08-05T16:29:38.926Z,0.43
2022-08-05T16:32:09.738Z,0.40
2022-08-05T16:34:39.315Z,0.53
2022-08-05T16:38:02.930Z,0.30
2022-08-05T16:40:04.818Z,0.37
2022-08-05T16:42:35.629Z,0.33
2022-08-05T16:46:04.703Z,0.40
2022-08-05T16:47:57.475Z,0.50
2022-08-05T16:50:28.873Z,0.40
2022-08-05T16:52:56.951Z,0.43
2022-08-05T16:55:24.991Z,0.30
2022-08-05T16:58:00.172Z,0.30
2022-08-05T17:00:34.299Z,0.40
2022-08-05T17:03:03.507Z,0.40
2022-08-05T17:05:32.470Z,0.40
2022-08-05T17:08:05.364Z,0.30
2022-08-05T17:10:35.650Z,0.37
2022-08-05T17:13:05.491Z,0.63
2022-08-05T17:15:48.503Z,0.47
2022-08-05T17:18:19.081Z,0.20
2022-08-05T17:20:48.744Z,0.30
2022-08-05T17:24:03.489Z,0.27
2022-08-05T17:26:05.403Z,0.30
2022-08-05T17:28:33.185Z,0.37
2022-08-05T17:31:08.465Z,0.40
2022-08-05T17:33:50.993Z,0.30
2022-08-05T17:36:33.989Z,0.50
2022-08-05T17:39:05.113Z,0.60
2022-08-05T17:42:28.496Z,0.57
2022-08-05T17:44:39.355Z,0.50
2022-08-05T17:47:08.579Z,0.30
2022-08-05T17:49:59.984Z,0.30
2022-08-05T17:52:27.914Z,0.30
2022-08-05T17:54:56.465Z,0.40
2022-08-05T17:57:24.487Z,0.50
2022-08-05T18:00:03.287Z,0.50
2022-08-05T18:02:35.009Z,0.40
2022-08-05T18:05:07.729Z,0.50
2022-08-05T18:07:41.503Z,0.50
2022-08-05T18:10:11.325Z,0.40
2022-08-05T18:12:39.964Z,0.83
2022-08-05T18:15:10.158Z,0.77
2022-08-05T18:18:01.034Z,0.80
2022-08-05T18:20:29.382Z,0.27
2022-08-05T18:23:00.679Z,0.30
2022-08-05T18:25:38.850Z,0.60
2022-08-05T18:28:07.088Z,0.50
2022-08-05T18:30:39.098Z,0.50
2022-08-05T18:33:13.485Z,0.50
2022-08-05T18:36:01.372Z,0.60
2022-08-05T18:38:31.041Z,0.70
2022-08-05T18:41:55.880Z,0.60
2022-08-05T18:43:48.724Z,0.53
2022-08-05T18:46:19.924Z,0.60
2022-08-05T18:48:51.531Z,0.50
2022-08-05T18:52:04.323Z,0.57
2022-08-05T18:54:25.920Z,0.40
2022-08-05T18:56:57.218Z,0.70
2022-08-05T18:59:42.667Z,0.40
2022-08-05T19:02:27.079Z,0.80
2022-08-05T19:05:02.432Z,0.93
2022-08-05T19:07:48.044Z,0.70
2022-08-05T19:10:16.072Z,0.70
2022-08-05T19:12:46.044Z,0.73
2022-08-05T19:15:58.259Z,0.63
2022-08-05T19:18:09.199Z,0.60
2022-08-05T19:20:41.805Z,0.70
2022-08-05T19:24:03.251Z,0.50
2022-08-05T19:26:03.140Z,0.57
2022-08-05T19:28:32.944Z,0.60
2022-08-05T19:31:01.465Z,0.70
2022-08-05T19:33:36.203Z,0.70
2022-08-05T19:36:07.020Z,0.60
2022-08-05T19:38:43.606Z,0.70
2022-08-05T19:41:11.754Z,1.03
2022-08-05T19:44:06.916Z,0.80
2022-08-05T19:46:31.040Z,0.60
2022-08-05T19:49:02.057Z,0.80
2022-08-05T19:52:09.286Z,0.60
2022-08-05T19:54:25.460Z,0.80
2022-08-05T19:56:59.105Z,0.70
2022-08-05T19:59:55.176Z,1.00
2022-08-05T20:02:17.536Z,0.50
2022-08-05T20:04:46.107Z,0.50
2022-08-05T20:07:15.818Z,0.53
2022-08-05T20:10:11.429Z,0.80
2022-08-05T20:12:46.264Z,0.50
2022-08-05T20:15:48.027Z,0.60
2022-08-05T20:18:10.936Z,0.40
2022-08-05T20:20:55.115Z,0.50
2022-08-05T20:23:39.293Z,0.67
2022-08-05T20:26:16.213Z,0.60
2022-08-05T20:28:47.834Z,0.60
2022-08-05T20:31:16.683Z,0.57
2022-08-05T20:33:45.246Z,0.87
2022-08-05T20:36:16.257Z,0.70
2022-08-05T20:38:53.628Z,0.67
2022-08-05T20:41:27.286Z,0.53
2022-08-05T20:44:18.489Z,1.07
2022-08-05T20:46:56.937Z,0.60
2022-08-05T20:49:26.171Z,0.90
2022-08-05T20:51:54.673Z,0.90
2022-08-05T20:54:25.218Z,0.80
2022-08-05T20:56:53.171Z,0.90
2022-08-05T20:59:26.952Z,0.80
2022-08-05T21:02:09.770Z,0.70
2022-08-05T21:04:38.992Z,0.50
2022-08-05T21:07:08.448Z,1.10
2022-08-05T21:09:38.078Z,0.60
2022-08-05T21:12:19.730Z,0.70
2022-08-05T21:14:47.662Z,0.90
2022-08-05T21:17:15.877Z,0.67
2022-08-05T21:19:46.585Z,0.70
2022-08-05T21:22:18.526Z,0.77
2022-08-05T21:24:51.931Z,0.60
2022-08-05T21:27:24.765Z,0.70
2022-08-05T21:29:54.136Z,0.70
2022-08-05T21:32:23.535Z,0.70
2022-08-05T21:35:06.858Z,0.90
2022-08-05T21:37:41.040Z,0.70
2022-08-05T21:40:13.657Z,1.10
2022-08-05T21:42:44.686Z,0.87
2022-08-05T21:45:23.992Z,0.97
2022-08-05T21:47:56.745Z,0.93
2022-08-05T21:50:25.789Z,0.70
2022-08-05T21:52:53.734Z,0.70
2022-08-05T21:56:01.217Z,0.73
2022-08-05T21:58:16.559Z,0.70
2022-08-05T22:00:51.176Z,0.50
2022-08-05T22:03:48.211Z,0.77
2022-08-05T22:06:08.208Z,0.77
2022-08-05T22:08:36.361Z,0.63
2022-08-05T22:11:15.735Z,0.60
2022-08-05T22:14:06.627Z,0.80
2022-08-05T22:16:41.860Z,0.87
2022-08-05T22:20:02.971Z,0.87
2022-08-05T22:22:08.895Z,0.80
2022-08-05T22:24:55.895Z,0.77
2022-08-05T22:28:08.390Z,0.67
2022-08-05T22:30:32.437Z,0.67
2022-08-05T22:33:03.796Z,0.50
2022-08-05T22:35:48.650Z,0.63
2022-08-05T22:38:19.685Z,0.80
2022-08-05T22:40:49.649Z,0.70
2022-08-05T22:43:36.567Z,0.90
2022-08-05T22:46:12.151Z,0.87
2022-08-05T22:48:41.831Z,0.77
2022-08-05T22:51:15.713Z,0.67
2022-08-05T22:53:50.453Z,0.87
2022-08-05T22:56:30.678Z,0.50
2022-08-05T22:59:03.232Z,0.90
2022-08-05T23:02:04.454Z,0.70
2022-08-05T23:04:34.882Z,0.70
2022-08-05T23:07:02.819Z,0.70
2022-08-05T23:09:57.067Z,1.13
2022-08-05T23:12:20.280Z,0.80
2022-08-05T23:14:53.161Z,1.00
2022-08-05T23:17:34.587Z,0.90
2022-08-05T23:20:10.476Z,0.60
2022-08-05T23:22:47.451Z,0.57
2022-08-05T23:25:53.411Z,0.70
2022-08-05T23:28:06.961Z,0.67
2022-08-05T23:30:40.404Z,1.33
2022-08-05T23:33:22.616Z,0.67
2022-08-05T23:35:56.158Z,0.57
2022-08-05T23:38:25.814Z,0.77
2022-08-05T23:40:53.695Z,0.67
2022-08-05T23:43:25.120Z,0.83
2022-08-05T23:46:21.251Z,0.77
2022-08-05T23:49:00.512Z,0.80
2022-08-05T23:51:53.915Z,0.97
2022-08-05T23:54:26.132Z,0.70
2022-08-05T23:57:03.125Z,0.77
